Time;durP1;ratioP1;P1;durP2;ratioP2;P2;SDS_P1;SDS_P2;PMS_P1;PMS_P2;Temp;Humidity;BMP_temperature;BMP_pressure;BME280_temperature;BME280_humidity;BME280_pressure;Samples;Min_cycle;Max_cycle;Signal;HPM_P1;HPM_P2
2023/05/13 00:01:29;;;;;;;20.58;17.13;;;15.70;99.90;;;;;;4856595;29;39928;-87
2023/05/13 00:03:56;;;;;;;19.10;15.65;;;15.60;99.90;;;;;;4869603;29;37787;-88
2023/05/13 00:06:22;;;;;;;16.92;15.23;;;15.60;99.90;;;;;;4851723;29;38487;-88
2023/05/13 00:08:48;;;;;;;17.90;15.60;;;15.60;99.90;;;;;;4854909;29;38559;-89
2023/05/13 00:11:14;;;;;;;19.40;16.10;;;15.60;99.90;;;;;;4868992;29;37159;-88
2023/05/13 00:13:40;;;;;;;16.90;15.07;;;15.60;99.90;;;;;;4864628;29;36691;-88
2023/05/13 00:16:06;;;;;;;18.08;14.73;;;15.50;99.90;;;;;;4869311;29;35701;-88
2023/05/13 00:18:32;;;;;;;18.35;14.70;;;15.50;99.90;;;;;;4851470;29;37722;-88
2023/05/13 00:20:59;;;;;;;16.02;14.27;;;15.50;99.90;;;;;;4865045;29;37077;-88
2023/05/13 00:23:25;;;;;;;16.40;14.05;;;15.50;99.90;;;;;;4865735;29;36614;-86
2023/05/13 00:25:51;;;;;;;15.80;12.70;;;15.50;99.90;;;;;;4870308;29;37363;-88
2023/05/13 00:28:18;;;;;;;14.98;12.30;;;15.60;99.90;;;;;;4855691;29;38488;-89
2023/05/13 00:30:45;;;;;;;18.02;13.00;;;15.60;99.90;;;;;;4852919;29;37243;-88
2023/05/13 00:33:11;;;;;;;14.88;12.00;;;15.60;99.90;;;;;;4850071;29;37430;-89
2023/05/13 00:35:37;;;;;;;13.00;11.65;;;15.60;99.90;;;;;;4845868;29;36244;-89
2023/05/13 00:38:04;;;;;;;14.63;11.63;;;15.50;99.90;;;;;;4854256;29;39601;-89
2023/05/13 00:40:30;;;;;;;13.27;11.55;;;15.50;99.90;;;;;;4857839;29;40055;-88
2023/05/13 00:42:56;;;;;;;14.02;9.88;;;15.50;99.90;;;;;;4852835;29;36283;-88
2023/05/13 00:45:23;;;;;;;14.25;9.43;;;15.50;99.90;;;;;;4867061;29;39090;-88
2023/05/13 00:47:49;;;;;;;11.50;9.55;;;15.60;99.90;;;;;;4869144;29;37555;-88
2023/05/13 00:50:15;;;;;;;9.77;8.65;;;15.50;99.90;;;;;;4843315;29;37210;-88
2023/05/13 00:52:42;;;;;;;10.13;8.13;;;15.60;99.90;;;;;;4868600;29;36118;-89
2023/05/13 00:55:09;;;;;;;10.57;7.72;;;15.60;99.90;;;;;;4867357;29;38026;-89
2023/05/13 00:57:38;;;;;;;10.35;7.15;;;15.70;99.90;;;;;;4853436;29;37395;-88
2023/05/13 01:00:05;;;;;;;7.50;6.38;;;15.70;99.90;;;;;;4868415;29;37469;-88
2023/05/13 01:03:06;;;;;;;11.45;6.78;;;15.70;99.90;;;;;;5210251;23;36536;-78
2023/05/13 01:06:03;;;;;;;7.88;6.07;;;15.70;99.90;;;;;;4830096;29;47020;-78
2023/05/13 01:08:56;;;;;;;9.68;5.82;;;15.80;99.90;;;;;;4832845;29;47216;-78
2023/05/13 01:11:30;;;;;;;10.90;5.50;;;15.80;99.90;;;;;;4842333;29;38194;-79
2023/05/13 01:14:02;;;;;;;8.10;5.30;;;15.90;99.90;;;;;;4841231;29;36763;-80
2023/05/13 01:16:41;;;;;;;5.75;4.30;;;15.90;99.90;;;;;;4842276;29;48011;-79
2023/05/13 01:19:31;;;;;;;6.65;4.72;;;15.90;99.90;;;;;;4837858;29;38544;-79
2023/05/13 01:21:57;;;;;;;7.63;4.20;;;15.90;99.90;;;;;;4847753;29;36909;-78
2023/05/13 01:24:23;;;;;;;7.63;3.97;;;15.80;99.90;;;;;;4838227;29;37382;-79
2023/05/13 01:26:50;;;;;;;6.30;4.00;;;15.90;99.90;;;;;;4832434;29;39054;-79
2023/05/13 01:29:16;;;;;;;4.38;3.42;;;15.90;99.90;;;;;;4831446;29;38139;-79
2023/05/13 01:31:42;;;;;;;5.90;4.00;;;15.90;99.90;;;;;;4831108;29;36600;-79
2023/05/13 01:34:11;;;;;;;8.13;3.72;;;15.90;99.90;;;;;;4832671;29;37481;-80
2023/05/13 01:36:38;;;;;;;8.88;3.67;;;16.00;99.90;;;;;;4832917;29;38976;-79
2023/05/13 01:39:06;;;;;;;6.93;3.67;;;16.00;99.90;;;;;;4836949;29;38517;-79
2023/05/13 01:41:32;;;;;;;4.70;3.70;;;16.00;99.90;;;;;;4832604;29;36856;-79
2023/05/13 01:43:58;;;;;;;5.82;3.35;;;16.00;99.90;;;;;;4829912;29;35994;-79
2023/05/13 01:46:25;;;;;;;5.88;3.90;;;16.00;99.90;;;;;;4829738;29;37631;-79
2023/05/13 01:48:51;;;;;;;8.48;4.07;;;16.00;99.90;;;;;;4832713;29;37420;-79
2023/05/13 01:51:17;;;;;;;11.20;4.18;;;15.90;99.90;;;;;;4832640;29;36620;-79
2023/05/13 01:53:43;;;;;;;5.43;3.40;;;15.90;99.90;;;;;;4831694;29;35905;-79
2023/05/13 01:56:09;;;;;;;5.65;4.05;;;15.80;99.90;;;;;;4832321;29;37819;-79
2023/05/13 01:58:35;;;;;;;5.20;3.75;;;15.90;99.90;;;;;;4835259;29;39267;-79
2023/05/13 02:01:02;;;;;;;5.22;3.65;;;15.80;99.90;;;;;;4832413;29;38042;-79
2023/05/13 02:03:29;;;;;;;6.20;3.70;;;15.80;99.90;;;;;;4837487;29;36315;-79
2023/05/13 02:05:55;;;;;;;4.78;3.72;;;15.80;99.90;;;;;;4829877;29;39935;-80
2023/05/13 02:08:22;;;;;;;6.72;3.72;;;15.80;99.90;;;;;;4831842;29;37367;-79
2023/05/13 02:10:59;;;;;;;7.03;3.80;;;15.70;99.90;;;;;;4845481;29;36885;-80
2023/05/13 02:13:25;;;;;;;7.47;4.00;;;15.60;99.90;;;;;;4830061;29;37677;-81
2023/05/13 02:15:55;;;;;;;4.47;4.03;;;15.50;99.90;;;;;;4832806;29;38051;-79
2023/05/13 02:18:21;;;;;;;6.18;3.45;;;15.50;99.90;;;;;;4833135;29;39382;-79
2023/05/13 02:20:49;;;;;;;5.55;4.07;;;15.50;99.90;;;;;;4821454;29;20512;-79
2023/05/13 02:23:16;;;;;;;8.13;4.45;;;15.40;99.90;;;;;;4838652;29;35828;-80
2023/05/13 02:25:43;;;;;;;9.13;4.78;;;15.40;99.90;;;;;;4834664;29;37726;-79
2023/05/13 02:28:09;;;;;;;9.00;4.18;;;15.30;99.90;;;;;;4834309;29;37179;-79
2023/05/13 02:30:35;;;;;;;9.25;4.63;;;15.20;99.90;;;;;;4841383;29;40741;-79
2023/05/13 02:33:01;;;;;;;9.98;4.40;;;15.30;99.90;;;;;;4838514;29;36502;-79
2023/05/13 02:35:30;;;;;;;14.18;5.40;;;15.20;99.90;;;;;;4840915;29;37522;-78
2023/05/13 02:37:57;;;;;;;10.75;5.28;;;15.10;99.90;;;;;;4844402;29;38772;-79
2023/05/13 02:40:23;;;;;;;7.30;5.22;;;15.00;99.90;;;;;;4838828;29;38145;-79
2023/05/13 02:42:49;;;;;;;8.10;5.15;;;15.00;99.90;;;;;;4847683;29;37077;-79
2023/05/13 02:45:16;;;;;;;10.88;6.28;;;14.80;99.90;;;;;;4842613;29;38479;-79
2023/05/13 02:47:42;;;;;;;7.97;5.80;;;14.70;99.90;;;;;;4842675;29;37985;-79
2023/05/13 02:50:09;;;;;;;7.80;6.03;;;14.70;99.90;;;;;;4851317;29;36701;-79
2023/05/13 02:52:37;;;;;;;9.15;6.10;;;14.50;99.90;;;;;;4848212;29;36092;-79
2023/05/13 02:55:06;;;;;;;10.32;6.85;;;14.50;99.90;;;;;;4841251;29;39201;-80
2023/05/13 02:57:32;;;;;;;15.02;6.75;;;14.40;99.90;;;;;;4845834;29;47097;-79
2023/05/13 02:59:58;;;;;;;8.02;7.20;;;14.30;99.90;;;;;;4850778;29;39736;-80
2023/05/13 03:02:24;;;;;;;8.57;7.22;;;14.30;99.90;;;;;;4849389;29;37345;-80
2023/05/13 03:04:51;;;;;;;11.80;7.53;;;14.20;99.90;;;;;;4850885;29;37208;-79
2023/05/13 03:07:17;;;;;;;11.50;7.18;;;14.20;99.90;;;;;;4853586;29;38975;-80
2023/05/13 03:09:43;;;;;;;9.60;6.93;;;14.10;99.90;;;;;;4846580;29;36969;-79
2023/05/13 03:12:09;;;;;;;9.95;7.53;;;14.10;99.90;;;;;;4850277;29;38187;-80
2023/05/13 03:14:36;;;;;;;10.40;7.80;;;14.00;99.90;;;;;;4853907;29;39290;-79
2023/05/13 03:17:02;;;;;;;8.75;7.32;;;14.00;99.90;;;;;;4854111;29;37355;-79
2023/05/13 03:19:28;;;;;;;9.98;8.10;;;14.00;99.90;;;;;;4856763;29;47020;-80
2023/05/13 03:21:55;;;;;;;12.23;7.68;;;13.90;99.90;;;;;;4851546;29;37109;-79
2023/05/13 03:24:21;;;;;;;12.07;8.10;;;13.80;99.90;;;;;;4850274;29;40254;-80
2023/05/13 03:26:47;;;;;;;13.07;7.57;;;13.70;99.90;;;;;;4851938;29;36264;-79
2023/05/13 03:29:13;;;;;;;11.32;7.70;;;13.70;99.90;;;;;;4852319;29;38039;-80
2023/05/13 03:31:39;;;;;;;11.00;7.45;;;13.60;99.90;;;;;;4849672;29;36221;-80
2023/05/13 03:34:07;;;;;;;9.00;7.57;;;13.60;99.90;;;;;;4846931;29;38729;-80
2023/05/13 03:36:33;;;;;;;9.38;7.57;;;13.60;99.90;;;;;;4863445;29;40010;-80
2023/05/13 03:38:59;;;;;;;11.20;8.05;;;13.50;99.90;;;;;;4846139;29;38018;-80
2023/05/13 03:41:26;;;;;;;10.45;7.95;;;13.50;99.90;;;;;;4853155;29;38139;-79
2023/05/13 03:43:53;;;;;;;10.65;7.90;;;13.40;99.90;;;;;;4851322;29;39463;-80
2023/05/13 03:46:20;;;;;;;10.50;7.88;;;13.30;99.90;;;;;;4844713;29;38426;-80
2023/05/13 03:48:46;;;;;;;10.77;7.63;;;13.30;99.90;;;;;;4845333;29;38056;-80
2023/05/13 03:51:12;;;;;;;9.68;7.75;;;13.20;99.90;;;;;;4845184;29;36569;-80
2023/05/13 03:53:40;;;;;;;11.60;7.68;;;13.20;99.90;;;;;;4846904;29;38957;-80
2023/05/13 03:56:07;;;;;;;14.32;8.27;;;13.20;99.90;;;;;;4844552;29;37560;-80
2023/05/13 03:58:33;;;;;;;15.45;8.45;;;13.10;99.90;;;;;;4845345;29;36970;-80
2023/05/13 04:00:59;;;;;;;11.77;8.43;;;13.10;99.90;;;;;;4841967;29;35794;-79
2023/05/13 04:03:25;;;;;;;11.65;8.63;;;13.10;99.90;;;;;;4836490;29;38813;-80
2023/05/13 04:05:51;;;;;;;11.70;8.45;;;13.10;99.90;;;;;;4843890;29;38764;-79
2023/05/13 04:08:18;;;;;;;10.13;7.63;;;13.00;99.90;;;;;;4839609;29;38469;-79
2023/05/13 04:10:44;;;;;;;13.25;8.25;;;13.00;99.90;;;;;;4839110;29;37289;-79
2023/05/13 04:13:10;;;;;;;10.27;7.78;;;13.00;99.90;;;;;;4841662;29;38843;-78
2023/05/13 04:15:36;;;;;;;13.68;9.13;;;13.00;99.90;;;;;;4843397;29;38370;-79
2023/05/13 04:18:02;;;;;;;11.52;7.93;;;12.90;99.90;;;;;;4844044;29;38216;-79
2023/05/13 04:20:28;;;;;;;11.50;8.63;;;12.90;99.90;;;;;;4840450;29;36814;-79
2023/05/13 04:22:55;;;;;;;12.63;9.55;;;12.90;99.90;;;;;;4843173;29;38625;-79
2023/05/13 04:25:21;;;;;;;11.68;9.48;;;12.80;99.90;;;;;;4844829;29;37249;-80
2023/05/13 04:27:47;;;;;;;12.13;9.75;;;12.80;99.90;;;;;;4839593;29;39396;-80
2023/05/13 04:30:13;;;;;;;11.82;9.95;;;12.80;99.90;;;;;;4841457;29;37021;-79
2023/05/13 04:32:39;;;;;;;14.32;11.05;;;12.80;99.90;;;;;;4848780;29;37735;-79
2023/05/13 04:35:06;;;;;;;13.45;10.25;;;12.70;99.90;;;;;;4842236;29;38890;-81
2023/05/13 04:37:33;;;;;;;19.13;11.13;;;12.70;99.90;;;;;;4848616;29;38306;-79
2023/05/13 04:39:59;;;;;;;13.88;10.35;;;12.70;99.90;;;;;;4841916;29;36437;-79
2023/05/13 04:42:25;;;;;;;17.17;11.25;;;12.70;99.90;;;;;;4841862;29;38128;-80
2023/05/13 04:44:51;;;;;;;15.77;11.02;;;12.70;99.90;;;;;;4840521;29;37276;-80
2023/05/13 04:47:17;;;;;;;16.90;11.13;;;12.70;99.90;;;;;;4839738;29;38822;-79
2023/05/13 04:49:43;;;;;;;21.42;12.73;;;12.80;99.90;;;;;;4840661;29;37920;-79
2023/05/13 04:52:11;;;;;;;21.95;11.60;;;12.80;99.90;;;;;;4838248;29;37239;-80
2023/05/13 04:54:38;;;;;;;14.60;12.43;;;12.80;99.90;;;;;;4841995;29;37466;-79
2023/05/13 04:57:05;;;;;;;17.20;12.63;;;12.80;99.90;;;;;;4839513;29;38198;-79
2023/05/13 04:59:31;;;;;;;22.13;12.93;;;12.80;99.90;;;;;;4841787;29;36937;-78
2023/05/13 05:01:57;;;;;;;18.20;12.93;;;12.80;99.90;;;;;;4837416;29;37308;-78
2023/05/13 05:04:24;;;;;;;22.55;13.93;;;12.80;99.90;;;;;;4841547;29;38125;-80
2023/05/13 05:06:50;;;;;;;23.33;13.77;;;12.80;99.90;;;;;;4842729;29;38862;-79
2023/05/13 05:09:17;;;;;;;15.52;12.43;;;12.80;99.90;;;;;;4842652;29;36630;-79
2023/05/13 05:11:43;;;;;;;21.58;13.95;;;12.90;99.90;;;;;;4836430;29;38858;-79
2023/05/13 05:14:10;;;;;;;20.40;13.82;;;12.90;99.90;;;;;;4834168;29;37883;-80
2023/05/13 05:16:36;;;;;;;21.05;14.98;;;12.90;99.90;;;;;;4841764;29;37282;-79
2023/05/13 05:19:02;;;;;;;20.48;13.73;;;13.00;99.90;;;;;;4838589;29;37624;-79
2023/05/13 05:21:28;;;;;;;19.17;14.68;;;13.20;99.90;;;;;;4849195;29;37768;-80
2023/05/13 05:23:54;;;;;;;22.27;15.02;;;13.30;99.90;;;;;;4837808;29;37612;-79
2023/05/13 05:26:21;;;;;;;19.48;14.90;;;13.30;99.90;;;;;;4835437;29;36662;-79
2023/05/13 05:28:47;;;;;;;21.90;14.70;;;13.50;99.90;;;;;;4837745;29;37672;-80
2023/05/13 05:31:13;;;;;;;20.77;15.32;;;13.60;99.90;;;;;;4837520;29;37841;-79
2023/05/13 05:33:40;;;;;;;22.92;15.43;;;13.70;99.90;;;;;;4835205;29;35347;-80
2023/05/13 05:36:06;;;;;;;19.45;13.32;;;13.90;99.90;;;;;;4838858;29;37255;-79
2023/05/13 05:38:32;;;;;;;21.27;14.10;;;13.90;99.90;;;;;;4845374;29;37422;-79
2023/05/13 05:40:59;;;;;;;21.27;15.48;;;14.10;99.90;;;;;;4843560;29;38892;-79
2023/05/13 05:43:25;;;;;;;20.27;14.40;;;14.20;99.90;;;;;;4847783;29;37683;-79
2023/05/13 05:45:51;;;;;;;21.02;15.05;;;14.10;99.90;;;;;;4852342;29;37183;-80
2023/05/13 05:48:17;;;;;;;18.95;14.32;;;14.00;99.90;;;;;;4866638;29;35957;-79
2023/05/13 05:50:43;;;;;;;19.67;14.13;;;14.00;99.90;;;;;;4846557;29;38947;-79
2023/05/13 05:53:09;;;;;;;16.52;13.40;;;14.00;99.90;;;;;;4851792;29;39505;-80
2023/05/13 05:55:35;;;;;;;20.33;13.73;;;14.00;99.90;;;;;;4844161;29;38336;-79
2023/05/13 05:58:08;;;;;;;21.23;13.40;;;14.10;99.90;;;;;;4846915;29;36442;-79
2023/05/13 06:00:34;;;;;;;;;;;14.20;99.90;;;;;;4847567;29;40274;-80
2023/05/13 06:03:00;;;;;;;20.42;14.23;;;14.30;99.90;;;;;;4845747;29;37466;-79
2023/05/13 06:05:26;;;;;;;19.38;14.15;;;14.50;99.90;;;;;;4838452;29;38030;-78
2023/05/13 06:07:52;;;;;;;17.80;14.10;;;14.60;99.90;;;;;;4840314;29;36204;-79
2023/05/13 06:10:19;;;;;;;17.88;13.63;;;14.80;99.90;;;;;;4851115;29;39787;-80
2023/05/13 06:12:45;;;;;;;21.60;13.32;;;14.90;99.90;;;;;;4848739;29;37603;-79
2023/05/13 06:15:11;;;;;;;18.15;12.82;;;15.10;99.90;;;;;;4849103;29;39142;-80
2023/05/13 06:17:38;;;;;;;17.20;12.82;;;15.40;99.90;;;;;;4850061;29;37126;-79
2023/05/13 06:20:07;;;;;;;17.90;12.45;;;15.70;99.90;;;;;;4847165;29;40773;-79
2023/05/13 06:22:33;;;;;;;16.83;12.25;;;15.90;99.90;;;;;;4844752;29;46671;-79
2023/05/13 06:25:00;;;;;;;16.65;11.48;;;15.90;99.90;;;;;;4839899;29;38364;-79
2023/05/13 06:27:26;;;;;;;17.83;11.98;;;16.00;99.90;;;;;;4842809;29;36903;-79
2023/05/13 06:29:52;;;;;;;13.73;11.10;;;16.20;99.90;;;;;;4844928;29;39888;-82
2023/05/13 06:32:19;;;;;;;14.02;10.18;;;16.40;99.90;;;;;;4821148;29;37859;-83
2023/05/13 06:34:45;;;;;;;13.75;10.75;;;16.30;99.90;;;;;;4837513;29;38164;-81
2023/05/13 06:37:14;;;;;;;16.42;11.02;;;16.30;99.90;;;;;;4828941;29;37033;-81
2023/05/13 06:39:40;;;;;;;14.77;10.35;;;16.50;99.90;;;;;;4826137;29;37799;-80
2023/05/13 06:42:06;;;;;;;16.83;10.60;;;16.70;99.90;;;;;;4830266;29;37479;-80
2023/05/13 06:44:32;;;;;;;14.20;9.95;;;16.90;99.90;;;;;;4824084;29;38981;-79
2023/05/13 06:47:01;;;;;;;18.48;10.05;;;17.00;99.90;;;;;;4833822;29;36473;-83
2023/05/13 06:49:27;;;;;;;18.58;10.65;;;17.20;99.90;;;;;;4833825;29;38608;-85
2023/05/13 06:51:53;;;;;;;12.90;10.25;;;17.40;99.90;;;;;;4831397;29;38506;-83
2023/05/13 06:54:19;;;;;;;12.75;9.55;;;17.60;99.90;;;;;;4830038;29;37203;-83
2023/05/13 06:56:46;;;;;;;12.15;8.35;;;17.80;99.90;;;;;;4823406;29;36469;-84
2023/05/13 06:59:12;;;;;;;11.73;8.82;;;17.80;99.90;;;;;;4827463;29;39784;-84
2023/05/13 07:01:38;;;;;;;12.95;8.85;;;17.90;99.90;;;;;;4830605;29;37615;-83
2023/05/13 07:04:04;;;;;;;11.63;9.55;;;17.90;99.90;;;;;;4821530;29;37064;-83
2023/05/13 07:06:31;;;;;;;12.85;9.50;;;18.00;99.90;;;;;;4826063;29;36097;-84
2023/05/13 07:08:57;;;;;;;13.32;9.80;;;17.90;99.90;;;;;;4833007;29;39489;-85
2023/05/13 07:11:23;;;;;;;16.73;10.20;;;17.80;99.90;;;;;;4831373;29;38129;-82
2023/05/13 07:13:49;;;;;;;13.65;9.88;;;17.90;99.90;;;;;;4818017;29;38889;-82
2023/05/13 07:16:16;;;;;;;11.38;8.95;;;18.10;99.90;;;;;;4825135;29;38365;-82
2023/05/13 07:18:42;;;;;;;11.98;9.63;;;18.30;99.90;;;;;;4836059;29;38567;-83
2023/05/13 07:21:08;;;;;;;14.57;10.30;;;18.40;99.90;;;;;;4826989;29;37068;-86
2023/05/13 07:23:34;;;;;;;13.27;10.02;;;18.50;99.90;;;;;;4842675;29;39360;-81
2023/05/13 07:26:01;;;;;;;14.23;9.10;;;18.50;99.90;;;;;;4826018;29;38076;-85
2023/05/13 07:28:27;;;;;;;12.10;9.32;;;18.70;99.90;;;;;;4835686;29;47684;-85
2023/05/13 07:30:53;;;;;;;13.52;9.68;;;18.70;99.90;;;;;;4834590;29;38525;-86
2023/05/13 07:33:19;;;;;;;12.73;9.48;;;18.80;99.90;;;;;;4826656;29;37933;-78
2023/05/13 07:35:45;;;;;;;14.07;9.40;;;18.60;99.90;;;;;;4829803;29;35326;-80
2023/05/13 07:38:12;;;;;;;15.85;8.88;;;18.90;99.90;;;;;;4824915;29;39007;-82
2023/05/13 07:40:38;;;;;;;14.27;9.02;;;19.00;99.90;;;;;;4825576;29;37346;-80
2023/05/13 07:43:04;;;;;;;11.30;8.55;;;19.10;99.90;;;;;;4848148;29;36835;-79
2023/05/13 07:45:31;;;;;;;12.02;8.68;;;19.10;99.90;;;;;;4833180;29;35993;-80
2023/05/13 07:47:57;;;;;;;11.75;8.23;;;19.30;99.90;;;;;;4834494;29;38588;-79
2023/05/13 07:50:23;;;;;;;13.77;8.27;;;19.10;99.90;;;;;;4830857;29;36905;-80
2023/05/13 07:52:50;;;;;;;13.55;8.23;;;19.20;99.90;;;;;;4835823;29;36533;-80
2023/05/13 07:55:16;;;;;;;9.45;7.65;;;19.10;99.90;;;;;;4834135;29;36171;-81
2023/05/13 07:57:43;;;;;;;14.18;7.57;;;19.30;99.90;;;;;;4835752;29;37697;-80
2023/05/13 08:00:09;;;;;;;12.23;7.82;;;19.70;99.90;;;;;;4832370;29;39665;-80
2023/05/13 08:02:38;;;;;;;11.07;7.22;;;19.60;99.90;;;;;;4826969;29;36639;-80
2023/05/13 08:05:05;;;;;;;10.32;7.05;;;19.70;99.90;;;;;;4832805;29;37004;-80
2023/05/13 08:07:31;;;;;;;9.57;7.18;;;19.80;99.90;;;;;;4828050;29;38897;-80
2023/05/13 08:09:57;;;;;;;15.18;7.50;;;19.70;99.90;;;;;;4834083;29;36991;-79
2023/05/13 08:12:23;;;;;;;9.25;6.38;;;20.00;99.90;;;;;;4830974;29;37103;-80
2023/05/13 08:14:50;;;;;;;14.52;7.00;;;20.20;99.90;;;;;;4825314;29;39483;-78
2023/05/13 08:17:18;;;;;;;9.20;5.78;;;20.40;99.90;;;;;;4828358;29;37697;-79
2023/05/13 08:19:45;;;;;;;15.65;6.80;;;20.70;99.90;;;;;;4826373;29;37310;-79
2023/05/13 08:22:11;;;;;;;9.02;6.25;;;20.90;99.90;;;;;;4822229;29;39092;-78
2023/05/13 08:24:39;;;;;;;10.80;6.60;;;20.70;99.90;;;;;;4832321;29;37282;-78
2023/05/13 08:27:05;;;;;;;6.93;5.80;;;20.40;99.90;;;;;;4832097;29;39047;-78
2023/05/13 08:29:31;;;;;;;6.80;5.72;;;20.30;99.90;;;;;;4832397;29;37871;-79
2023/05/13 08:31:57;;;;;;;7.40;5.72;;;20.50;99.90;;;;;;4832657;29;38167;-79
2023/05/13 08:34:26;;;;;;;9.52;6.28;;;20.60;99.90;;;;;;4830308;29;38258;-79
2023/05/13 08:36:53;;;;;;;9.45;5.57;;;20.50;99.90;;;;;;4826331;29;38305;-79
2023/05/13 08:39:19;;;;;;;10.38;5.95;;;20.60;99.90;;;;;;4830450;29;37957;-79
2023/05/13 08:41:45;;;;;;;7.57;5.22;;;20.60;99.90;;;;;;4831995;29;38283;-81
2023/05/13 08:44:12;;;;;;;8.57;5.45;;;20.60;99.90;;;;;;4841570;29;38363;-79
2023/05/13 08:46:43;;;;;;;7.43;5.55;;;20.80;99.90;;;;;;4830703;29;38905;-82
2023/05/13 08:49:10;;;;;;;10.07;5.47;;;20.80;99.90;;;;;;4823814;29;37177;-79
2023/05/13 08:51:36;;;;;;;9.40;5.88;;;20.90;99.90;;;;;;4827874;29;38088;-79
2023/05/13 08:54:03;;;;;;;12.77;5.95;;;20.90;99.90;;;;;;4803630;29;36143;-81
2023/05/13 08:56:29;;;;;;;7.68;5.63;;;20.90;99.90;;;;;;4827697;29;47579;-80
2023/05/13 08:58:56;;;;;;;8.98;5.50;;;21.20;99.90;;;;;;4831517;29;37435;-80
2023/05/13 09:01:23;;;;;;;6.75;5.30;;;21.40;99.90;;;;;;4835390;29;38572;-80
2023/05/13 09:04:01;;;;;;;9.30;5.32;;;21.50;99.90;;;;;;4838160;29;36117;-79
2023/05/13 09:06:27;;;;;;;9.57;5.18;;;21.60;99.90;;;;;;4827137;29;47039;-81
2023/05/13 09:08:55;;;;;;;12.32;5.50;;;21.60;99.90;;;;;;4833857;29;37285;-78
2023/05/13 09:11:22;;;;;;;12.18;5.65;;;21.70;99.90;;;;;;4827930;29;38416;-79
2023/05/13 09:14:06;;;;;;;7.38;4.97;;;21.80;99.90;;;;;;4833123;29;38806;-79
2023/05/13 09:16:32;;;;;;;12.35;5.28;;;21.90;99.90;;;;;;4829400;29;48638;-80
2023/05/13 09:19:03;;;;;;;11.60;4.53;;;21.90;99.90;;;;;;4836121;29;37246;-79
2023/05/13 09:21:31;;;;;;;6.22;4.20;;;22.30;99.90;;;;;;4827371;29;48765;-79
2023/05/13 09:24:16;;;;;;;7.18;4.72;;;22.40;99.90;;;;;;4838729;29;38084;-85
2023/05/13 09:26:44;;;;;;;21.05;5.93;;;22.40;99.90;;;;;;4828050;29;47218;-83
2023/05/13 09:29:28;;;;;;;17.30;5.78;;;22.40;99.90;;;;;;4824444;29;40329;-80
2023/05/13 09:31:56;;;;;;;17.77;5.47;;;22.00;99.90;;;;;;4827864;29;39603;-79
2023/05/13 09:34:28;;;;;;;8.80;4.68;;;22.40;99.90;;;;;;4827499;29;36532;-80
2023/05/13 09:37:07;;;;;;;13.33;5.30;;;22.50;99.90;;;;;;4833321;29;39091;-79
2023/05/13 09:39:38;;;;;;;7.57;4.30;;;22.60;99.90;;;;;;4829092;29;47976;-79
2023/05/13 09:42:22;;;;;;;14.38;5.28;;;22.50;99.90;;;;;;4831306;29;37910;-80
2023/05/13 09:44:48;;;;;;;24.80;5.20;;;22.40;99.90;;;;;;4820634;29;38065;-80
2023/05/13 09:47:15;;;;;;;8.30;4.07;;;22.50;99.90;;;;;;4824972;29;37977;-78
2023/05/13 09:49:43;;;;;;;18.75;5.50;;;22.80;99.90;;;;;;4830416;29;38389;-79
2023/05/13 09:52:10;;;;;;;9.40;4.32;;;23.00;99.90;;;;;;4832668;29;36753;-79
2023/05/13 09:54:37;;;;;;;16.23;4.90;;;22.80;99.90;;;;;;4828080;29;36949;-79
2023/05/13 09:57:04;;;;;;;8.18;4.50;;;22.70;99.90;;;;;;4831743;29;38038;-79
2023/05/13 09:59:34;;;;;;;8.02;4.93;;;23.00;99.90;;;;;;4828798;29;39516;-79
2023/05/13 10:02:05;;;;;;;9.35;4.30;;;23.00;99.90;;;;;;4822207;29;37588;-80
2023/05/13 10:04:32;;;;;;;7.27;4.07;;;23.10;99.90;;;;;;4822651;29;47657;-79
2023/05/13 10:07:02;;;;;;;8.45;5.40;;;23.00;99.90;;;;;;4834716;29;37712;-78
2023/05/13 10:09:37;;;;;;;10.77;3.90;;;22.50;99.90;;;;;;4832614;29;48184;-78
2023/05/13 10:12:06;;;;;;;11.60;4.13;;;22.80;99.90;;;;;;4828461;29;37036;-78
2023/05/13 10:14:33;;;;;;;14.88;4.25;;;23.20;99.90;;;;;;4830801;29;36357;-79
2023/05/13 10:17:00;;;;;;;9.68;4.60;;;23.40;99.90;;;;;;4830503;29;39203;-78
2023/05/13 10:19:27;;;;;;;12.00;4.90;;;23.40;99.90;;;;;;4832882;29;38872;-79
2023/05/13 10:21:53;;;;;;;8.75;4.13;;;23.30;99.90;;;;;;4830155;29;38106;-80
2023/05/13 10:24:21;;;;;;;8.15;3.78;;;23.20;99.90;;;;;;4836175;29;37170;-80
2023/05/13 10:26:49;;;;;;;8.13;4.20;;;23.70;99.90;;;;;;4843680;29;38017;-83
2023/05/13 10:29:16;;;;;;;7.35;3.95;;;24.00;99.90;;;;;;4826853;29;38141;-76
2023/05/13 10:31:44;;;;;;;9.52;3.75;;;24.00;99.90;;;;;;4847103;29;37320;-79
2023/05/13 10:34:11;;;;;;;12.73;4.30;;;23.80;99.90;;;;;;4828119;29;36781;-78
2023/05/13 10:36:47;;;;;;;6.03;3.63;;;23.90;99.90;;;;;;4836856;29;38162;-78
2023/05/13 10:39:50;;;;;;;5.78;3.50;;;23.90;99.90;;;;;;4828806;29;37439;-79
2023/05/13 10:42:36;;;;;;;7.72;4.07;;;24.50;99.90;;;;;;4829983;29;38221;-78
2023/05/13 10:45:02;;;;;;;10.77;4.55;;;24.40;99.90;;;;;;4845836;29;36257;-78
2023/05/13 10:47:32;;;;;;;15.60;4.32;;;24.30;99.90;;;;;;4835171;29;39047;-78
2023/05/13 10:50:03;;;;;;;9.00;4.03;;;23.80;99.90;;;;;;4836269;29;38532;-77
2023/05/13 10:52:46;;;;;;;9.32;3.47;;;23.80;99.90;;;;;;4832242;29;38546;-77
2023/05/13 10:55:18;;;;;;;13.38;4.07;;;23.70;99.90;;;;;;4833468;29;37444;-77
2023/05/13 10:58:06;;;;;;;11.25;4.60;;;23.70;99.90;;;;;;4827977;29;38491;-78
2023/05/13 11:00:34;;;;;;;9.13;4.65;;;23.80;99.90;;;;;;4829696;29;47850;-77
2023/05/13 11:03:23;;;;;;;6.18;3.95;;;24.00;99.90;;;;;;4832915;29;37004;-78
2023/05/13 11:06:14;;;;;;;12.68;4.75;;;24.10;99.90;;;;;;4829605;29;49583;-77
2023/05/13 11:08:42;;;;;;;14.63;4.70;;;24.20;99.90;;;;;;4829997;29;47272;-77
2023/05/13 11:11:22;;;;;;;10.73;4.28;;;24.20;99.90;;;;;;4830284;29;38553;-78
2023/05/13 11:14:01;;;;;;;11.27;3.92;;;24.00;99.90;;;;;;4828203;29;37942;-79
2023/05/13 11:16:27;;;;;;;10.20;4.22;;;24.30;99.90;;;;;;4828265;29;47149;-78
2023/05/13 11:18:53;;;;;;;12.05;4.63;;;24.30;99.90;;;;;;4828348;29;38025;-78
2023/05/13 11:21:39;;;;;;;16.88;5.00;;;24.20;99.90;;;;;;4827495;29;37881;-78
2023/05/13 11:24:07;;;;;;;18.00;5.38;;;24.50;99.90;;;;;;4834857;29;37383;-79
2023/05/13 11:26:47;;;;;;;15.25;5.63;;;24.10;99.90;;;;;;4829696;29;35985;-79
2023/05/13 11:29:14;;;;;;;17.40;5.72;;;24.00;99.90;;;;;;4842311;29;39486;-78
2023/05/13 11:31:48;;;;;;;13.25;5.22;;;24.00;99.90;;;;;;4830987;29;38750;-78
2023/05/13 11:34:15;;;;;;;9.38;4.88;;;24.00;99.90;;;;;;4828534;29;37852;-77
2023/05/13 11:37:05;;;;;;;10.95;5.07;;;24.40;99.90;;;;;;4822461;29;37029;-77
2023/05/13 11:39:32;;;;;;;13.35;6.10;;;24.50;99.90;;;;;;4844071;29;46931;-77
2023/05/13 11:42:00;;;;;;;13.15;5.63;;;24.40;99.90;;;;;;4824340;29;37234;-78
2023/05/13 11:44:27;;;;;;;15.70;5.72;;;24.40;99.90;;;;;;4823632;29;37010;-77
2023/05/13 11:46:58;;;;;;;11.82;5.40;;;24.50;99.90;;;;;;4831010;29;37426;-77
2023/05/13 11:49:45;;;;;;;14.13;6.50;;;24.60;99.90;;;;;;4829940;29;39062;-78
2023/05/13 11:52:18;;;;;;;18.00;5.72;;;24.70;99.90;;;;;;4828891;29;38270;-78
2023/05/13 11:54:48;;;;;;;14.88;5.38;;;24.70;99.90;;;;;;4826848;29;37219;-78
2023/05/13 11:57:23;;;;;;;16.25;5.82;;;24.50;99.90;;;;;;4841418;29;38691;-78
2023/05/13 12:00:05;;;;;;;11.10;4.85;;;24.20;99.90;;;;;;4831732;29;40532;-78
2023/05/13 12:02:34;;;;;;;18.92;6.07;;;24.20;99.90;;;;;;4839212;29;37317;-79
2023/05/13 12:05:03;;;;;;;11.32;5.50;;;24.30;99.90;;;;;;4829213;29;39619;-77
2023/05/13 12:07:29;;;;;;;13.65;5.70;;;24.40;99.90;;;;;;4820747;29;36378;-77
2023/05/13 12:10:01;;;;;;;13.45;5.68;;;24.20;99.90;;;;;;4822155;29;37557;-78
2023/05/13 12:12:31;;;;;;;17.58;5.47;;;24.00;99.90;;;;;;4824307;29;38028;-79
2023/05/13 12:15:09;;;;;;;12.98;5.53;;;24.20;99.90;;;;;;4830146;29;37814;-79
2023/05/13 12:17:46;;;;;;;13.60;5.72;;;24.40;99.90;;;;;;4824987;29;48402;-82
2023/05/13 12:20:20;;;;;;;15.30;6.13;;;24.10;99.90;;;;;;4816843;29;38371;-79
2023/05/13 12:22:46;;;;;;;11.15;4.90;;;24.50;99.90;;;;;;4832910;29;40031;-79
2023/05/13 12:25:42;;;;;;;19.52;5.88;;;24.90;99.90;;;;;;4830167;29;36717;-79
2023/05/13 12:28:21;;;;;;;15.73;5.00;;;24.50;99.90;;;;;;4827173;29;37394;-78
2023/05/13 12:30:52;;;;;;;13.77;5.22;;;24.70;99.90;;;;;;4827193;29;38151;-78
2023/05/13 12:33:21;;;;;;;14.25;5.15;;;24.70;99.90;;;;;;4832489;29;37884;-78
2023/05/13 12:35:52;;;;;;;12.57;4.97;;;24.80;99.90;;;;;;4823398;29;37020;-79
2023/05/13 12:38:21;;;;;;;12.00;5.65;;;24.60;99.90;;;;;;4822776;29;36311;-79
2023/05/13 12:40:49;;;;;;;13.63;5.07;;;24.60;99.90;;;;;;4825428;29;38401;-80
2023/05/13 12:43:18;;;;;;;9.90;4.00;;;24.90;99.90;;;;;;4828420;29;39580;-80
2023/05/13 12:45:46;;;;;;;13.98;5.63;;;25.00;99.90;;;;;;4815251;29;38210;-81